createdAt,value
2023-03-01T02:00:26.968Z,90.40
2023-03-01T02:03:06.866Z,99.90
2023-03-01T02:05:54.991Z,99.90
2023-03-01T02:08:24.579Z,99.90
2023-03-01T02:10:52.867Z,99.90
2023-03-01T02:13:19.655Z,99.90
2023-03-01T02:15:46.675Z,99.90
2023-03-01T02:18:18.205Z,99.90
2023-03-01T02:21:06.751Z,99.90
2023-03-01T02:23:34.780Z,99.90
2023-03-01T02:26:15.039Z,99.90
2023-03-01T02:28:44.902Z,99.90
2023-03-01T02:31:34.117Z,99.90
2023-03-01T02:34:11.750Z,99.90
2023-03-01T02:36:58.612Z,99.90
2023-03-01T05:35:54.543Z,99.90
2023-03-01T05:38:22.233Z,99.90
2023-03-01T05:40:49.922Z,99.90
2023-03-01T05:43:18.046Z,99.90
2023-03-01T05:45:45.579Z,99.90
2023-03-01T05:48:13.642Z,99.90
2023-03-01T05:50:45.620Z,99.90
2023-03-01T05:53:23.744Z,99.90
2023-03-01T05:55:50.895Z,99.90
2023-03-01T05:58:20.519Z,99.90
2023-03-01T06:00:49.054Z,99.90
2023-03-01T06:03:18.194Z,99.90
2023-03-01T06:05:46.190Z,99.90
2023-03-01T06:08:13.547Z,99.90
2023-03-01T06:10:41.674Z,99.90
2023-03-01T06:13:08.542Z,99.90
2023-03-01T06:15:35.371Z,99.90
2023-03-01T06:18:02.493Z,99.90
2023-03-01T06:20:30.071Z,99.90
2023-03-01T06:42:44.227Z,99.90
2023-03-01T06:45:11.367Z,99.90
2023-03-01T06:47:38.332Z,99.90
2023-03-01T06:50:05.464Z,99.90
2023-03-01T06:52:32.602Z,99.90
2023-03-01T06:54:59.788Z,99.90
2023-03-01T06:57:26.906Z,99.90
2023-03-01T06:59:53.751Z,99.90
2023-03-01T07:02:20.655Z,99.90
2023-03-01T07:04:47.430Z,99.90
2023-03-01T07:07:14.306Z,99.90
2023-03-01T07:09:41.024Z,99.90
2023-03-01T07:12:08.860Z,99.90
2023-03-01T07:14:35.636Z,99.90
2023-03-01T07:17:02.620Z,99.90
2023-03-01T07:19:29.818Z,99.90
2023-03-01T07:21:56.843Z,99.90
2023-03-01T07:24:23.777Z,99.90
2023-03-01T07:26:51.464Z,99.90
2023-03-01T07:29:19.136Z,99.90
2023-03-01T10:13:53.844Z,99.90
2023-03-01T10:16:49.724Z,99.90
2023-03-01T10:19:37.406Z,99.90
2023-03-01T10:22:14.085Z,99.50
2023-03-01T10:24:41.016Z,98.80
2023-03-01T10:27:17.693Z,98.50
2023-03-01T10:30:23.660Z,98.40
2023-03-01T10:48:35.971Z,97.80
2023-03-01T11:03:32.076Z,95.60
2023-03-01T11:16:32.597Z,87.20
2023-03-01T11:21:32.236Z,87.10
2023-03-01T11:29:03.224Z,81.90
2023-03-01T11:31:31.023Z,75.30
2023-03-01T11:34:15.951Z,75.90
2023-03-01T11:36:57.682Z,72.70
2023-03-01T11:40:00.832Z,73.30
2023-03-01T11:42:42.774Z,70.50
2023-03-01T11:45:13.186Z,69.10
2023-03-01T11:47:59.017Z,69.70
2023-03-01T11:50:47.159Z,67.70
2023-03-01T11:53:45.637Z,72.00
2023-03-01T11:56:41.636Z,68.90
2023-03-01T11:59:40.540Z,67.50
2023-03-01T12:02:25.578Z,64.40
2023-03-01T12:05:21.655Z,66.20
2023-03-01T12:07:56.146Z,62.60
2023-03-01T12:10:57.913Z,63.50
2023-03-01T12:13:53.193Z,63.60
2023-03-01T12:16:39.213Z,63.10
2023-03-01T12:19:18.826Z,61.00
2023-03-01T12:22:10.515Z,61.20
2023-03-01T12:24:58.463Z,60.70
2023-03-01T12:27:59.086Z,60.20
2023-03-01T12:30:59.945Z,59.70
2023-03-01T12:34:18.537Z,60.30
2023-03-01T12:37:09.246Z,63.00
2023-03-01T12:44:51.723Z,60.50
2023-03-01T12:47:45.898Z,59.80
2023-03-01T12:50:20.176Z,61.10
2023-03-01T12:52:54.377Z,60.50
2023-03-01T12:58:26.289Z,59.40
2023-03-01T13:01:22.386Z,56.70
2023-03-01T13:03:49.331Z,58.10
2023-03-01T13:06:43.522Z,56.30
2023-03-01T13:09:17.155Z,56.30
2023-03-01T13:11:44.398Z,55.90
2023-03-01T13:14:23.957Z,56.30
2023-03-01T13:16:55.110Z,57.50
2023-03-01T13:19:22.901Z,56.30
2023-03-01T13:21:51.692Z,56.70
2023-03-01T13:24:41.187Z,56.30
2023-03-01T13:27:08.491Z,56.30
2023-03-01T13:29:56.865Z,57.30
2023-03-01T13:32:48.868Z,56.40
2023-03-01T13:35:18.448Z,57.20
2023-03-01T13:37:45.654Z,56.30
2023-03-01T13:40:21.844Z,54.40
2023-03-01T13:43:04.291Z,55.50
2023-03-01T13:45:41.817Z,55.30
2023-03-01T13:48:17.805Z,54.60
2023-03-01T13:51:16.759Z,54.70
2023-03-01T13:53:46.783Z,55.20
2023-03-01T13:56:25.498Z,55.60
2023-03-01T13:59:03.657Z,54.70
2023-03-01T14:01:36.363Z,54.80
2023-03-01T14:04:19.562Z,56.40
2023-03-01T14:06:46.466Z,53.70
2023-03-01T14:09:21.628Z,54.30
2023-03-01T14:11:51.425Z,55.50
2023-03-01T14:14:40.058Z,55.30
2023-03-01T14:17:37.669Z,56.90
2023-03-01T14:20:18.197Z,54.30
2023-03-01T14:22:46.997Z,56.20
2023-03-01T14:25:30.837Z,56.40
2023-03-01T14:28:04.552Z,55.20
2023-03-01T14:30:41.338Z,56.00
2023-03-01T14:33:25.040Z,56.80
2023-03-01T14:36:08.731Z,55.00
2023-03-01T14:38:39.836Z,54.20
2023-03-01T14:41:13.803Z,55.20
2023-03-01T14:43:45.709Z,57.10
2023-03-01T14:46:35.815Z,57.40
2023-03-01T14:49:10.843Z,54.80
2023-03-01T14:51:39.592Z,54.90
2023-03-01T14:54:32.855Z,55.80
2023-03-01T14:57:02.162Z,56.50
2023-03-01T14:59:29.398Z,57.60
2023-03-01T15:01:58.822Z,57.30
2023-03-01T15:04:27.427Z,57.90
2023-03-01T15:06:56.609Z,58.60
2023-03-01T15:09:23.958Z,59.80
2023-03-01T15:11:51.138Z,59.60
2023-03-01T15:14:47.360Z,59.60
2023-03-01T15:17:32.053Z,60.70
2023-03-01T15:19:59.482Z,62.00
2023-03-01T15:22:28.168Z,60.80
2023-03-01T15:24:56.078Z,61.90
2023-03-01T15:27:28.325Z,60.80
2023-03-01T15:30:00.205Z,61.80
2023-03-01T15:32:30.198Z,62.30
2023-03-01T15:34:58.343Z,61.90
2023-03-01T15:37:44.001Z,61.40
2023-03-01T19:38:31.487Z,81.30
2023-03-01T19:40:58.388Z,82.80
2023-03-01T19:43:25.356Z,82.60
2023-03-01T19:45:53.857Z,83.20
2023-03-01T19:48:21.219Z,83.20
2023-03-01T19:53:16.073Z,83.20
